createdAt,value
2022-07-28T00:02:39.368Z,1.90
2022-07-28T00:07:42.193Z,1.90
2022-07-28T00:12:45.438Z,2.13
2022-07-28T00:17:48.144Z,1.93
2022-07-28T00:22:50.853Z,2.10
2022-07-28T00:27:53.557Z,2.10
2022-07-28T00:32:56.252Z,1.87
2022-07-28T00:37:59.602Z,1.90
2022-07-28T00:43:02.863Z,1.70
2022-07-28T00:48:05.810Z,1.60
2022-07-28T00:53:08.827Z,1.80
2022-07-28T00:58:11.626Z,2.03
2022-07-28T01:03:14.585Z,1.80
2022-07-28T01:08:38.588Z,1.90
2022-07-28T01:14:01.575Z,2.03
2022-07-28T01:19:32.260Z,1.60
2022-07-28T01:25:00.700Z,1.80
2022-07-28T01:30:27.934Z,1.80
2022-07-28T01:35:35.671Z,1.60
2022-07-28T01:40:41.089Z,1.73
2022-07-28T01:45:44.947Z,1.87
2022-07-28T01:50:49.657Z,1.63
2022-07-28T01:55:53.418Z,1.70
2022-07-28T02:00:57.403Z,1.70
2022-07-28T02:06:02.753Z,1.77
2022-07-28T02:11:23.947Z,2.00
2022-07-28T02:16:27.319Z,1.80
2022-07-28T02:21:31.541Z,1.90
2022-07-28T02:26:38.366Z,1.90
2022-07-28T02:32:27.915Z,2.17
2022-07-28T02:37:35.388Z,2.00
2022-07-28T02:42:39.006Z,1.87
2022-07-28T02:47:52.155Z,2.00
2022-07-28T02:53:02.069Z,2.00
2022-07-28T02:58:21.125Z,1.97
2022-07-28T03:03:24.207Z,2.20
2022-07-28T03:08:27.041Z,1.83
2022-07-28T03:13:29.746Z,1.87
2022-07-28T03:18:32.697Z,2.13
2022-07-28T03:23:43.778Z,2.40
2022-07-28T03:28:47.003Z,1.80
2022-07-28T03:33:49.708Z,2.00
2022-07-28T03:39:04.153Z,1.83
2022-07-28T03:44:06.979Z,1.70
2022-07-28T03:49:09.835Z,2.50
2022-07-28T03:54:13.434Z,2.30
2022-07-28T03:59:17.961Z,1.90
2022-07-28T04:04:20.663Z,2.10
2022-07-28T04:09:23.492Z,1.90
2022-07-28T04:14:26.179Z,2.17
2022-07-28T04:19:28.877Z,1.87
2022-07-28T04:24:31.591Z,2.07
2022-07-28T04:29:34.347Z,1.83
2022-07-28T04:34:37.090Z,1.60
2022-07-28T04:39:39.767Z,1.90
2022-07-28T04:44:42.549Z,1.90
2022-07-28T04:49:45.397Z,1.93
2022-07-28T04:54:48.231Z,1.87
2022-07-28T04:59:53.895Z,1.93
2022-07-28T05:04:59.402Z,1.70
2022-07-28T05:10:03.011Z,1.97
2022-07-28T05:15:07.326Z,2.27
2022-07-28T05:20:10.633Z,2.13
2022-07-28T05:25:20.647Z,2.43
2022-07-28T05:30:23.461Z,2.00
2022-07-28T05:35:26.782Z,2.77
2022-07-28T05:40:30.066Z,2.70
2022-07-28T05:45:34.070Z,2.70
2022-07-28T05:50:38.132Z,2.60
2022-07-28T05:56:00.363Z,2.43
2022-07-28T06:01:03.893Z,3.10
2022-07-28T06:06:15.713Z,2.87
2022-07-28T06:11:22.531Z,3.10
2022-07-28T06:16:25.935Z,3.20
2022-07-28T06:21:28.653Z,3.60
2022-07-28T06:26:31.382Z,3.03
2022-07-28T06:31:34.971Z,3.37
2022-07-28T06:36:37.675Z,3.57
2022-07-28T06:41:43.374Z,4.00
2022-07-28T06:46:46.203Z,4.13
2022-07-28T06:51:48.970Z,3.10
2022-07-28T06:56:52.964Z,2.90
2022-07-28T07:02:01.841Z,2.93
2022-07-28T07:07:04.710Z,2.87
2022-07-28T07:12:17.729Z,2.90
2022-07-28T07:17:20.427Z,2.90
2022-07-28T07:22:23.133Z,2.40
2022-07-28T07:27:25.853Z,2.72
2022-07-28T07:32:28.604Z,2.60
2022-07-28T07:37:32.683Z,2.00
2022-07-28T07:42:35.544Z,2.42
2022-07-28T07:47:38.236Z,1.88
2022-07-28T07:52:40.948Z,1.30
2022-07-28T07:57:44.573Z,1.70
2022-07-28T08:02:47.797Z,1.35
2022-07-28T08:07:51.663Z,1.52
2022-07-28T08:12:54.352Z,1.27
2022-07-28T08:17:57.126Z,1.60
2022-07-28T08:22:59.856Z,1.80
2022-07-28T08:28:03.772Z,1.67
2022-07-28T08:33:06.782Z,1.42
2022-07-28T08:38:11.375Z,1.73
2022-07-28T08:43:42.562Z,1.40
2022-07-28T08:48:45.948Z,1.30
2022-07-28T08:53:49.642Z,1.23
2022-07-28T08:58:52.356Z,1.25
2022-07-28T09:03:55.576Z,1.52
2022-07-28T09:08:58.367Z,1.35
2022-07-28T09:14:01.130Z,1.50
2022-07-28T09:19:03.920Z,1.38
2022-07-28T09:24:07.156Z,1.52
2022-07-28T09:29:09.919Z,1.70
2022-07-28T09:34:13.064Z,1.40
2022-07-28T09:39:36.610Z,1.48
2022-07-28T09:44:39.457Z,1.55
2022-07-28T09:49:43.564Z,1.40
2022-07-28T09:55:03.779Z,1.88
2022-07-28T10:00:10.025Z,1.50
2022-07-28T10:05:14.158Z,1.40
2022-07-28T10:10:21.745Z,1.60
2022-07-28T10:15:50.727Z,1.20
2022-07-28T10:20:53.867Z,1.58
2022-07-28T10:25:57.599Z,1.38
2022-07-28T10:31:02.566Z,1.25
2022-07-28T10:36:05.655Z,1.15
2022-07-28T10:41:09.936Z,1.73
2022-07-28T10:46:16.180Z,1.23
2022-07-28T10:51:21.654Z,1.60
2022-07-28T10:56:53.432Z,1.70
2022-07-28T11:02:00.018Z,1.80
2022-07-28T11:07:13.667Z,1.77
2022-07-28T11:12:16.519Z,1.98
2022-07-28T11:17:24.637Z,1.30
2022-07-28T11:22:36.372Z,1.83
2022-07-28T11:27:42.717Z,1.38
2022-07-28T11:32:51.436Z,1.70
2022-07-28T11:38:03.534Z,1.27
2022-07-28T11:43:27.926Z,1.70
2022-07-28T11:48:40.285Z,1.98
2022-07-28T11:53:43.763Z,2.17
2022-07-28T11:58:46.480Z,1.60
2022-07-28T12:03:56.222Z,1.90
2022-07-28T12:09:04.901Z,1.75
2022-07-28T12:14:08.323Z,2.22
2022-07-28T12:19:14.433Z,1.38
2022-07-28T12:24:29.887Z,1.45
2022-07-28T12:29:36.151Z,1.95
2022-07-28T12:34:43.668Z,1.90
2022-07-28T12:39:51.370Z,2.45
2022-07-28T12:45:02.935Z,1.40
2022-07-28T12:50:12.972Z,1.90
2022-07-28T12:55:27.138Z,2.00
2022-07-28T13:00:34.745Z,2.33
2022-07-28T13:05:57.371Z,1.75
2022-07-28T13:11:00.117Z,1.80
2022-07-28T13:16:18.983Z,1.70
2022-07-28T13:21:57.142Z,1.98
2022-07-28T13:27:02.613Z,2.10
2022-07-28T13:32:05.783Z,1.90
2022-07-28T13:37:09.072Z,1.92
2022-07-28T13:42:11.851Z,1.80
2022-07-28T13:47:16.663Z,1.70
2022-07-28T13:52:32.824Z,1.20
2022-07-28T13:57:37.737Z,2.00
2022-07-28T14:02:47.146Z,1.95
2022-07-28T14:07:50.597Z,1.80
2022-07-28T14:12:53.342Z,1.40
2022-07-28T14:17:56.952Z,1.88
2022-07-28T14:22:59.722Z,1.85
2022-07-28T14:28:02.511Z,1.98
2022-07-28T14:33:06.433Z,1.95
2022-07-28T14:43:32.745Z,1.90
2022-07-28T14:48:35.514Z,1.92
2022-07-28T14:53:40.078Z,2.05
2022-07-28T14:58:48.034Z,1.92
2022-07-28T15:03:50.709Z,1.52
2022-07-28T15:08:55.549Z,2.00
2022-07-28T15:13:58.990Z,1.95
2022-07-28T15:19:02.525Z,2.17
2022-07-28T15:24:05.803Z,1.40
2022-07-28T15:29:08.725Z,1.80
2022-07-28T15:34:11.571Z,1.27
2022-07-28T15:39:14.685Z,1.30
2022-07-28T15:44:18.541Z,1.38
2022-07-28T15:49:29.107Z,1.60
2022-07-28T15:54:31.946Z,1.50
2022-07-28T15:59:49.305Z,2.63
2022-07-28T16:04:54.064Z,1.63
2022-07-28T16:09:57.341Z,1.65
2022-07-28T16:15:00.063Z,1.70
2022-07-28T16:20:03.682Z,1.95
2022-07-28T16:25:08.256Z,1.52
2022-07-28T16:30:11.698Z,1.90
2022-07-28T16:35:14.790Z,1.85
2022-07-28T16:40:17.596Z,1.85
2022-07-28T16:45:20.516Z,1.90
2022-07-28T16:50:24.063Z,1.83
2022-07-28T16:55:27.184Z,1.60
2022-07-28T17:00:30.075Z,1.70
2022-07-28T17:05:32.747Z,1.42
2022-07-28T17:10:35.532Z,1.50
2022-07-28T17:15:39.212Z,1.50
2022-07-28T17:20:42.377Z,1.73
2022-07-28T17:26:20.438Z,2.10
2022-07-28T17:31:08.221Z,1.70
2022-07-28T17:36:10.987Z,1.58
2022-07-28T17:41:14.283Z,1.48
2022-07-28T17:46:21.104Z,2.72
2022-07-28T17:51:24.192Z,1.67
2022-07-28T17:56:27.140Z,1.65
2022-07-28T18:01:31.533Z,1.88
2022-07-28T18:06:35.875Z,1.60
2022-07-28T18:11:55.567Z,1.50
2022-07-28T18:16:59.574Z,1.73
2022-07-28T18:22:02.294Z,2.10
2022-07-28T18:27:05.141Z,1.73
2022-07-28T18:32:09.985Z,1.80
2022-07-28T18:37:13.067Z,1.80
2022-07-28T18:42:16.101Z,1.98
2022-07-28T18:47:18.809Z,2.20
2022-07-28T18:52:21.544Z,1.52
2022-07-28T18:57:24.408Z,2.03
2022-07-28T19:02:28.291Z,2.00
2022-07-28T19:07:31.151Z,2.17
2022-07-28T19:12:34.293Z,1.80
2022-07-28T19:17:39.877Z,2.10
2022-07-28T19:22:42.744Z,2.20
2022-07-28T19:27:45.460Z,2.20
2022-07-28T19:32:48.214Z,2.03
2022-07-28T19:37:51.033Z,2.20
2022-07-28T19:42:53.747Z,2.50
2022-07-28T19:47:56.512Z,2.55
2022-07-28T19:52:59.331Z,2.90
2022-07-28T19:58:04.191Z,2.42
2022-07-28T20:03:13.487Z,3.22
2022-07-28T20:08:31.335Z,3.50
2022-07-28T20:13:34.124Z,3.50
2022-07-28T20:18:36.905Z,2.75
2022-07-28T20:23:40.959Z,3.47
2022-07-28T20:28:44.146Z,2.80
2022-07-28T20:33:47.419Z,4.20
2022-07-28T20:38:50.188Z,3.40
2022-07-28T20:44:18.428Z,3.92
2022-07-28T20:49:15.756Z,4.32
2022-07-28T20:54:18.903Z,3.85
2022-07-28T20:59:27.430Z,3.75
2022-07-28T21:04:30.497Z,3.88
2022-07-28T21:09:33.558Z,3.60
2022-07-28T21:14:36.382Z,3.10
2022-07-28T21:19:39.150Z,2.95
2022-07-28T21:24:41.853Z,3.72
2022-07-28T21:29:44.700Z,3.53
2022-07-28T21:34:47.486Z,3.22
2022-07-28T21:39:50.221Z,3.60
2022-07-28T21:44:52.959Z,3.33
2022-07-28T21:49:55.632Z,3.15
2022-07-28T21:55:00.899Z,3.00
2022-07-28T22:00:06.452Z,3.28
2022-07-28T22:05:09.790Z,3.10
2022-07-28T22:10:12.588Z,3.20
2022-07-28T22:15:15.972Z,3.00
2022-07-28T22:20:18.659Z,2.73
2022-07-28T22:25:21.415Z,3.25
2022-07-28T22:30:24.365Z,2.90
2022-07-28T22:35:27.113Z,3.83
2022-07-28T22:40:30.495Z,2.97
2022-07-28T22:45:50.619Z,3.30
2022-07-28T22:50:54.312Z,3.90
2022-07-28T22:55:57.075Z,3.97
2022-07-28T23:01:01.141Z,3.33
2022-07-28T23:06:05.960Z,3.47
2022-07-28T23:11:08.741Z,3.00
2022-07-28T23:16:12.114Z,3.53
2022-07-28T23:21:14.841Z,3.43
2022-07-28T23:26:17.533Z,3.43
2022-07-28T23:31:20.244Z,3.20
2022-07-28T23:36:26.781Z,3.47
2022-07-28T23:41:30.506Z,3.73
2022-07-28T23:46:33.273Z,3.80
2022-07-28T23:51:46.870Z,3.27
2022-07-28T23:56:56.527Z,3.30
